createdAt,value
2023-02-16T00:00:19.394Z,6.68
2023-02-16T00:02:46.863Z,7.07
2023-02-16T00:05:31.752Z,6.78
2023-02-16T00:07:59.723Z,6.68
2023-02-16T00:10:34.754Z,7.47
2023-02-16T00:13:24.936Z,7.05
2023-02-16T00:15:51.837Z,8.25
2023-02-16T00:18:21.561Z,7.50
2023-02-16T00:20:49.320Z,7.20
2023-02-16T00:23:16.390Z,6.40
2023-02-16T00:25:43.436Z,7.40
2023-02-16T00:28:17.640Z,7.38
2023-02-16T00:30:45.323Z,8.85
2023-02-16T00:33:19.227Z,7.18
2023-02-16T00:35:46.328Z,5.85
2023-02-16T00:38:16.279Z,8.43
2023-02-16T00:40:43.592Z,7.82
2023-02-16T00:43:26.182Z,7.07
2023-02-16T00:45:53.593Z,7.18
2023-02-16T00:48:21.161Z,6.53
2023-02-16T00:50:48.378Z,7.10
2023-02-16T00:53:18.011Z,8.18
2023-02-16T00:55:45.148Z,7.18
2023-02-16T00:58:30.761Z,8.13
2023-02-16T01:01:06.203Z,7.38
2023-02-16T01:03:33.339Z,7.97
2023-02-16T01:06:18.665Z,7.55
2023-02-16T01:09:03.993Z,6.75
2023-02-16T01:11:33.540Z,6.70
2023-02-16T01:14:01.892Z,7.55
2023-02-16T01:16:38.502Z,6.13
2023-02-16T01:19:05.830Z,6.25
2023-02-16T01:21:32.769Z,6.88
2023-02-16T01:24:01.725Z,6.22
2023-02-16T01:26:31.541Z,6.82
2023-02-16T01:28:58.382Z,6.25
2023-02-16T01:31:25.503Z,8.32
2023-02-16T01:33:52.375Z,7.68
2023-02-16T01:36:24.383Z,8.77
2023-02-16T01:38:51.517Z,6.82
2023-02-16T01:41:24.534Z,5.85
2023-02-16T01:44:11.608Z,8.23
2023-02-16T01:46:50.394Z,7.00
2023-02-16T01:49:18.945Z,6.18
2023-02-16T01:52:25.269Z,7.03
2023-02-16T01:55:04.056Z,6.63
2023-02-16T01:57:48.709Z,5.63
2023-02-16T02:00:31.421Z,5.75
2023-02-16T02:03:22.645Z,7.38
2023-02-16T02:05:51.577Z,7.70
2023-02-16T02:08:43.038Z,8.13
2023-02-16T02:11:32.499Z,5.72
2023-02-16T02:14:13.024Z,9.07
2023-02-16T02:16:39.881Z,5.65
2023-02-16T02:19:06.808Z,7.70
2023-02-16T02:22:11.342Z,5.10
2023-02-16T02:25:14.599Z,6.40
2023-02-16T02:27:53.630Z,6.60
2023-02-16T02:30:39.178Z,5.80
2023-02-16T02:33:18.491Z,7.07
2023-02-16T02:35:49.553Z,6.57
2023-02-16T02:38:44.366Z,8.50
2023-02-16T02:42:06.301Z,6.95
2023-02-16T02:44:54.372Z,7.50
2023-02-16T02:47:22.004Z,8.38
2023-02-16T02:49:53.516Z,8.02
2023-02-16T02:52:22.307Z,5.82
2023-02-16T02:55:22.589Z,7.10
2023-02-16T02:58:09.396Z,7.57
2023-02-16T03:00:41.524Z,8.15
2023-02-16T03:03:09.089Z,5.85
2023-02-16T03:05:41.301Z,8.68
2023-02-16T03:08:14.447Z,7.32
2023-02-16T03:11:12.004Z,7.53
2023-02-16T03:13:48.762Z,6.03
2023-02-16T03:16:34.041Z,9.55
2023-02-16T03:19:21.293Z,6.57
2023-02-16T03:22:07.530Z,7.40
2023-02-16T03:24:53.094Z,7.03
2023-02-16T03:27:45.676Z,6.47
2023-02-16T03:30:14.442Z,7.78
2023-02-16T03:32:41.554Z,6.43
2023-02-16T03:35:09.324Z,6.40
2023-02-16T03:37:36.397Z,7.15
2023-02-16T03:40:24.650Z,8.93
2023-02-16T03:42:52.499Z,6.75
2023-02-16T03:45:20.595Z,8.40
2023-02-16T03:47:47.426Z,7.45
2023-02-16T03:50:14.659Z,7.50
2023-02-16T03:52:41.431Z,8.13
2023-02-16T03:55:09.400Z,7.88
2023-02-16T03:57:36.323Z,6.03
2023-02-16T04:00:03.422Z,6.47
2023-02-16T04:02:40.039Z,7.05
2023-02-16T04:05:07.131Z,6.38
2023-02-16T04:07:33.980Z,6.40
2023-02-16T04:10:00.786Z,7.97
2023-02-16T04:12:36.604Z,7.47
2023-02-16T04:15:11.581Z,9.05
2023-02-16T04:17:38.568Z,7.43
2023-02-16T04:20:07.554Z,7.25
2023-02-16T04:22:34.378Z,7.88
2023-02-16T04:25:01.185Z,7.72
2023-02-16T04:27:28.159Z,7.32
2023-02-16T04:29:54.992Z,6.85
2023-02-16T04:32:21.797Z,8.52
2023-02-16T04:34:48.670Z,7.70
2023-02-16T04:37:15.518Z,6.25
2023-02-16T04:39:42.334Z,8.10
2023-02-16T04:42:09.201Z,8.23
2023-02-16T04:44:35.988Z,5.72
2023-02-16T04:47:02.749Z,6.35
2023-02-16T04:49:29.561Z,7.53
2023-02-16T04:51:56.413Z,5.32
2023-02-16T04:54:23.251Z,6.18
2023-02-16T04:56:50.145Z,9.57
2023-02-16T04:59:16.899Z,7.90
2023-02-16T05:01:43.871Z,7.13
2023-02-16T05:04:11.077Z,7.30
2023-02-16T05:06:39.126Z,8.32
2023-02-16T05:09:06.896Z,7.82
2023-02-16T05:11:52.411Z,7.65
2023-02-16T05:14:43.068Z,8.05
2023-02-16T05:17:15.478Z,7.85
2023-02-16T05:19:44.893Z,8.73
2023-02-16T05:22:12.789Z,7.85
2023-02-16T05:24:40.216Z,9.35
2023-02-16T05:27:11.856Z,8.13
2023-02-16T05:29:38.736Z,6.03
2023-02-16T05:32:06.351Z,8.27
2023-02-16T05:34:33.283Z,8.57
2023-02-16T05:37:00.173Z,7.18
2023-02-16T05:39:27.192Z,7.35
2023-02-16T05:41:54.031Z,7.97
2023-02-16T05:44:21.671Z,9.52
2023-02-16T05:46:48.583Z,8.77
2023-02-16T05:49:16.278Z,6.88
2023-02-16T05:51:43.627Z,7.55
2023-02-16T05:54:10.849Z,8.55
2023-02-16T05:56:37.697Z,7.65
2023-02-16T05:59:04.601Z,8.82
2023-02-16T06:01:31.469Z,7.65
2023-02-16T06:03:58.299Z,9.57
2023-02-16T06:06:25.225Z,7.43
2023-02-16T06:08:52.121Z,8.38
2023-02-16T06:11:37.128Z,8.80
2023-02-16T06:14:08.686Z,6.15
2023-02-16T06:16:38.524Z,8.68
2023-02-16T06:19:06.331Z,6.68
2023-02-16T06:21:33.269Z,6.28
2023-02-16T06:24:00.465Z,6.95
2023-02-16T06:26:27.835Z,6.97
2023-02-16T06:28:55.259Z,9.07
2023-02-16T06:31:23.509Z,8.60
2023-02-16T06:33:50.878Z,7.38
2023-02-16T06:36:18.100Z,7.30
2023-02-16T06:38:45.440Z,8.52
2023-02-16T06:41:13.000Z,7.10
2023-02-16T06:43:39.905Z,8.20
2023-02-16T06:46:06.895Z,8.00
2023-02-16T06:48:33.907Z,7.40
2023-02-16T06:51:00.774Z,9.23
2023-02-16T06:53:27.621Z,5.50
2023-02-16T06:55:54.725Z,6.47
2023-02-16T06:58:21.570Z,6.57
2023-02-16T07:00:48.494Z,6.43
2023-02-16T07:03:15.411Z,5.07
2023-02-16T07:05:44.038Z,6.25
2023-02-16T07:08:10.939Z,8.55
2023-02-16T07:10:49.426Z,8.80
2023-02-16T07:13:17.179Z,6.90
2023-02-16T07:15:44.022Z,8.38
2023-02-16T07:18:10.854Z,7.13
2023-02-16T07:20:37.910Z,6.53
2023-02-16T07:23:05.015Z,6.90
2023-02-16T07:25:31.851Z,8.15
2023-02-16T07:27:58.796Z,5.75
2023-02-16T07:30:25.693Z,9.15
2023-02-16T07:32:52.505Z,10.15
2023-02-16T07:35:19.602Z,9.32
2023-02-16T07:37:46.365Z,8.35
2023-02-16T07:40:13.423Z,8.45
2023-02-16T07:42:40.228Z,7.90
2023-02-16T07:45:07.357Z,9.52
2023-02-16T07:47:34.190Z,7.55
2023-02-16T07:50:01.281Z,10.07
2023-02-16T07:52:31.136Z,9.43
2023-02-16T07:55:01.377Z,9.45
2023-02-16T07:57:29.058Z,8.13
2023-02-16T07:59:56.555Z,8.10
2023-02-16T08:02:24.092Z,9.70
2023-02-16T08:04:52.837Z,8.27
2023-02-16T08:07:20.320Z,8.20
2023-02-16T08:09:47.365Z,9.25
2023-02-16T08:12:15.857Z,8.50
2023-02-16T08:14:43.620Z,9.20
2023-02-16T08:17:10.955Z,9.57
2023-02-16T08:19:37.780Z,9.35
2023-02-16T08:22:05.887Z,9.52
2023-02-16T08:24:37.351Z,9.70
2023-02-16T08:27:05.298Z,9.38
2023-02-16T08:29:33.189Z,8.38
2023-02-16T08:32:00.552Z,10.05
2023-02-16T08:34:27.744Z,7.65
2023-02-16T08:36:56.927Z,7.68
2023-02-16T08:39:26.635Z,9.88
2023-02-16T08:41:54.540Z,9.10
2023-02-16T08:44:23.848Z,8.88
2023-02-16T08:46:52.788Z,7.38
2023-02-16T08:49:22.150Z,10.30
2023-02-16T08:51:52.161Z,10.70
2023-02-16T08:54:28.930Z,8.82
2023-02-16T08:56:56.605Z,9.32
2023-02-16T08:59:27.249Z,6.40
2023-02-16T09:01:55.269Z,7.88
2023-02-16T09:04:22.534Z,9.25
2023-02-16T09:06:49.393Z,10.00
2023-02-16T09:09:17.273Z,8.25
2023-02-16T09:11:44.266Z,10.10
2023-02-16T09:14:11.721Z,8.52
2023-02-16T09:16:43.800Z,7.97
2023-02-16T09:19:10.899Z,9.88
2023-02-16T09:21:37.761Z,9.77
2023-02-16T09:24:05.393Z,8.75
2023-02-16T09:26:38.429Z,7.47
2023-02-16T09:29:06.968Z,9.70
2023-02-16T09:31:37.251Z,9.43
2023-02-16T09:34:20.309Z,9.48
2023-02-16T09:36:48.042Z,8.70
2023-02-16T09:39:16.957Z,9.45
2023-02-16T09:42:05.014Z,8.32
2023-02-16T09:44:49.947Z,10.50
2023-02-16T09:47:33.115Z,9.15
2023-02-16T09:50:03.992Z,9.88
2023-02-16T09:52:37.885Z,10.32
2023-02-16T09:55:13.108Z,10.45
2023-02-16T09:57:59.924Z,10.43
2023-02-16T10:00:32.900Z,9.88
2023-02-16T10:03:00.374Z,8.63
2023-02-16T10:05:35.029Z,8.85
2023-02-16T10:08:07.649Z,10.30
2023-02-16T10:10:56.618Z,10.32
2023-02-16T10:13:54.220Z,10.05
2023-02-16T10:16:30.061Z,8.25
2023-02-16T10:18:59.629Z,10.48
2023-02-16T10:21:29.661Z,11.15
2023-02-16T10:24:03.775Z,10.18
2023-02-16T10:26:38.681Z,9.88
2023-02-16T10:29:19.150Z,8.68
2023-02-16T10:31:55.481Z,8.70
2023-02-16T10:34:44.546Z,8.50
2023-02-16T10:37:37.955Z,9.40
2023-02-16T10:40:23.552Z,8.50
2023-02-16T10:42:59.152Z,9.70
2023-02-16T10:45:28.706Z,10.30
2023-02-16T10:47:56.020Z,8.67
2023-02-16T10:50:37.779Z,9.63
2023-02-16T10:53:10.342Z,9.15
2023-02-16T10:55:38.856Z,8.63
2023-02-16T10:58:16.771Z,11.10
2023-02-16T11:01:00.903Z,10.18
2023-02-16T11:03:31.761Z,10.50
2023-02-16T11:06:20.204Z,9.02
2023-02-16T11:09:06.718Z,10.05
2023-02-16T11:11:42.570Z,8.15
2023-02-16T11:14:23.207Z,9.40
2023-02-16T11:17:21.265Z,9.88
2023-02-16T11:19:55.224Z,9.73
2023-02-16T11:22:38.534Z,9.80
2023-02-16T11:25:27.506Z,10.63
2023-02-16T11:28:02.680Z,10.32
2023-02-16T11:30:32.465Z,10.02
2023-02-16T11:33:04.481Z,9.15
2023-02-16T11:35:40.901Z,10.93
2023-02-16T11:38:28.060Z,13.38
2023-02-16T11:40:55.993Z,10.90
2023-02-16T11:43:25.975Z,9.48
2023-02-16T11:46:16.632Z,10.80
2023-02-16T11:48:44.245Z,12.45
2023-02-16T11:51:12.310Z,10.25
2023-02-16T11:53:42.325Z,10.77
2023-02-16T11:56:15.227Z,10.65
2023-02-16T11:58:42.245Z,11.73
2023-02-16T12:01:08.971Z,12.52
2023-02-16T12:04:13.463Z,9.35
2023-02-16T12:06:47.070Z,11.63
2023-02-16T12:09:36.094Z,10.25
2023-02-16T12:12:20.838Z,10.65
2023-02-16T12:14:56.238Z,11.20
2023-02-16T12:18:10.740Z,11.98
2023-02-16T12:20:47.707Z,11.27
2023-02-16T12:23:44.558Z,11.25
2023-02-16T12:26:33.993Z,10.35
2023-02-16T12:29:32.641Z,12.93
2023-02-16T12:32:14.382Z,12.00
2023-02-16T12:34:58.040Z,11.82
2023-02-16T12:37:33.372Z,11.63
2023-02-16T12:40:37.901Z,12.85
2023-02-16T12:43:35.810Z,13.45
2023-02-16T12:46:27.031Z,11.60
2023-02-16T12:49:07.590Z,13.57
2023-02-16T12:51:39.314Z,14.90
2023-02-16T12:54:15.220Z,13.07
2023-02-16T12:56:50.151Z,13.98
2023-02-16T12:59:55.523Z,13.18
2023-02-16T13:02:26.062Z,11.48
2023-02-16T13:05:08.783Z,10.90
2023-02-16T13:07:52.012Z,13.63
2023-02-16T13:10:24.494Z,14.23
2023-02-16T13:12:55.959Z,13.10
2023-02-16T13:15:37.448Z,12.43
2023-02-16T13:18:23.947Z,12.60
2023-02-16T13:20:55.315Z,11.43
2023-02-16T13:23:43.233Z,13.07
2023-02-16T13:26:34.691Z,14.38
2023-02-16T13:29:17.385Z,13.82
2023-02-16T13:32:05.981Z,13.88
2023-02-16T13:34:54.365Z,14.52
2023-02-16T13:37:34.604Z,12.77
2023-02-16T13:40:20.317Z,11.90
2023-02-16T13:43:28.194Z,13.57
2023-02-16T13:45:56.214Z,13.00
2023-02-16T13:48:33.361Z,12.73
2023-02-16T13:51:04.244Z,12.35
2023-02-16T13:53:38.225Z,14.73
2023-02-16T13:56:22.555Z,11.48
2023-02-16T13:58:53.251Z,12.73
2023-02-16T14:01:44.791Z,14.02
2023-02-16T14:04:27.607Z,14.40
2023-02-16T14:07:01.500Z,13.77
2023-02-16T14:09:36.247Z,14.02
2023-02-16T14:12:12.289Z,13.77
2023-02-16T14:14:53.789Z,15.02
2023-02-16T14:17:25.404Z,14.60
2023-02-16T14:19:55.327Z,15.00
2023-02-16T14:22:42.893Z,12.60
2023-02-16T14:25:25.904Z,14.65
2023-02-16T14:27:52.856Z,14.25
2023-02-16T14:30:36.417Z,13.23
2023-02-16T14:33:36.512Z,15.25
2023-02-16T14:36:12.065Z,14.13
2023-02-16T14:38:42.265Z,14.38
2023-02-16T14:41:15.767Z,14.88
2023-02-16T14:43:47.247Z,14.82
2023-02-16T14:46:36.276Z,15.48
2023-02-16T14:49:28.392Z,13.52
2023-02-16T14:52:35.951Z,13.98
2023-02-16T14:55:09.104Z,13.38
2023-02-16T14:57:57.614Z,15.30
2023-02-16T15:00:43.275Z,14.25
2023-02-16T15:03:18.114Z,14.38
2023-02-16T15:05:58.866Z,10.95
2023-02-16T15:08:35.727Z,12.27
2023-02-16T15:11:19.325Z,14.18
2023-02-16T15:13:47.312Z,13.20
2023-02-16T15:16:17.196Z,14.57
2023-02-16T15:18:52.083Z,13.82
2023-02-16T15:21:30.564Z,12.70
2023-02-16T15:24:00.180Z,12.77
2023-02-16T15:26:30.635Z,13.38
2023-02-16T15:29:13.366Z,12.63
2023-02-16T15:31:40.497Z,13.55
2023-02-16T15:34:13.291Z,14.20
2023-02-16T15:36:43.937Z,14.23
2023-02-16T15:39:41.315Z,14.55
2023-02-16T15:42:24.347Z,12.85
2023-02-16T15:44:51.751Z,13.43
2023-02-16T15:47:24.773Z,13.45
2023-02-16T15:49:53.973Z,14.40
2023-02-16T15:52:32.474Z,16.67
2023-02-16T15:55:01.865Z,13.55
2023-02-16T15:57:38.625Z,15.52
2023-02-16T16:00:19.309Z,13.55
2023-02-16T16:02:49.258Z,13.48
2023-02-16T16:05:24.091Z,13.50
2023-02-16T16:07:51.486Z,12.05
2023-02-16T16:10:24.878Z,14.07
2023-02-16T16:13:05.437Z,13.48
2023-02-16T16:15:40.060Z,13.52
2023-02-16T16:18:27.054Z,14.90
2023-02-16T16:21:00.702Z,13.20
2023-02-16T16:23:28.307Z,13.50
2023-02-16T16:25:55.551Z,13.88
2023-02-16T16:28:27.906Z,13.38
2023-02-16T16:31:13.647Z,14.77
2023-02-16T16:34:00.731Z,12.15
2023-02-16T16:36:34.814Z,14.93
2023-02-16T16:39:16.926Z,12.15
2023-02-16T16:42:11.903Z,14.60
2023-02-16T16:45:05.515Z,12.63
2023-02-16T16:47:41.213Z,13.07
2023-02-16T16:50:11.253Z,12.60
2023-02-16T16:52:49.595Z,12.80
2023-02-16T16:55:27.157Z,13.45
2023-02-16T16:58:00.389Z,13.23
2023-02-16T17:00:34.594Z,14.65
2023-02-16T17:03:03.834Z,13.25
2023-02-16T17:05:30.850Z,14.52
2023-02-16T17:07:57.733Z,13.52
2023-02-16T17:10:25.105Z,12.98
2023-02-16T17:12:56.064Z,12.98
2023-02-16T17:15:33.809Z,13.93
2023-02-16T17:18:01.225Z,14.40
2023-02-16T17:20:28.732Z,15.18
2023-02-16T17:22:55.653Z,14.38
2023-02-16T17:25:22.570Z,13.63
2023-02-16T17:27:49.535Z,13.45
2023-02-16T17:30:16.579Z,14.93
2023-02-16T17:32:43.377Z,12.45
2023-02-16T17:35:10.352Z,14.57
2023-02-16T17:37:37.323Z,14.02
2023-02-16T17:40:10.339Z,13.60
2023-02-16T17:42:37.366Z,12.55
2023-02-16T17:45:04.485Z,15.45
2023-02-16T17:47:31.463Z,12.80
2023-02-16T17:49:58.303Z,14.05
2023-02-16T17:52:25.217Z,13.63
2023-02-16T17:54:52.002Z,14.13
2023-02-16T17:57:19.187Z,14.90
2023-02-16T17:59:45.971Z,14.75
2023-02-16T18:02:12.988Z,13.88
2023-02-16T18:04:43.000Z,15.90
2023-02-16T18:07:14.308Z,13.38
2023-02-16T18:09:41.931Z,18.02
2023-02-16T18:12:09.263Z,13.95
2023-02-16T18:14:36.357Z,13.23
2023-02-16T18:17:04.048Z,13.90
2023-02-16T18:19:31.901Z,12.32
2023-02-16T18:21:59.099Z,12.98
2023-02-16T18:24:26.298Z,14.18
2023-02-16T18:26:54.709Z,14.48
2023-02-16T18:29:21.698Z,14.30
2023-02-16T18:31:49.281Z,11.82
2023-02-16T18:34:16.913Z,14.32
2023-02-16T18:36:44.347Z,16.08
2023-02-16T18:39:11.403Z,13.57
2023-02-16T18:41:38.522Z,14.60
2023-02-16T18:44:06.256Z,15.75
2023-02-16T18:46:33.058Z,15.18
2023-02-16T18:49:00.279Z,13.30
2023-02-16T18:51:29.430Z,14.02
2023-02-16T18:53:57.969Z,14.80
2023-02-16T18:56:24.948Z,14.57
2023-02-16T18:58:51.912Z,13.27
2023-02-16T19:01:36.853Z,15.07
2023-02-16T19:04:04.196Z,13.25
2023-02-16T19:06:31.807Z,14.63
2023-02-16T19:08:59.904Z,14.20
2023-02-16T19:11:28.804Z,13.68
2023-02-16T19:13:58.932Z,14.60
2023-02-16T19:16:26.774Z,11.93
2023-02-16T19:18:53.973Z,13.60
2023-02-16T19:21:20.901Z,14.73
2023-02-16T19:23:50.088Z,14.98
2023-02-16T19:26:18.901Z,14.88
2023-02-16T19:28:47.088Z,13.15
2023-02-16T19:31:26.139Z,14.57
2023-02-16T19:33:53.032Z,13.55
2023-02-16T19:36:21.238Z,13.00
2023-02-16T19:38:48.870Z,13.68
2023-02-16T19:41:23.974Z,15.82
2023-02-16T19:43:51.522Z,15.40
2023-02-16T19:46:18.904Z,15.60
2023-02-16T19:48:46.229Z,13.13
2023-02-16T19:51:14.470Z,14.23
2023-02-16T19:53:42.345Z,13.80
2023-02-16T19:56:16.178Z,13.90
2023-02-16T19:58:43.366Z,13.98
2023-02-16T20:01:13.829Z,15.13
2023-02-16T20:03:41.000Z,15.95
2023-02-16T20:06:18.932Z,12.80
2023-02-16T20:08:47.374Z,14.68
2023-02-16T20:11:15.571Z,13.85
2023-02-16T20:13:43.353Z,13.82
2023-02-16T20:16:12.338Z,13.38
2023-02-16T20:18:39.914Z,16.80
2023-02-16T20:21:16.167Z,14.50
2023-02-16T20:23:43.761Z,14.90
2023-02-16T20:26:13.526Z,13.95
2023-02-16T20:28:41.121Z,13.90
2023-02-16T20:31:14.394Z,14.77
2023-02-16T20:33:41.771Z,13.55
2023-02-16T20:36:08.892Z,13.90
2023-02-16T20:38:35.859Z,14.45
2023-02-16T20:41:02.866Z,14.55
2023-02-16T20:43:30.505Z,13.65
2023-02-16T20:45:58.289Z,15.63
2023-02-16T20:48:26.351Z,17.13
2023-02-16T20:51:00.562Z,16.20
2023-02-16T20:53:29.255Z,17.45
2023-02-16T20:56:09.452Z,14.80
2023-02-16T20:58:38.527Z,15.32
2023-02-16T21:01:20.064Z,15.13
2023-02-16T21:03:47.142Z,16.20
2023-02-16T21:06:14.770Z,14.45
2023-02-16T21:08:42.186Z,13.15
2023-02-16T21:11:09.187Z,14.80
2023-02-16T21:13:37.604Z,16.05
2023-02-16T21:16:05.320Z,14.85
2023-02-16T21:18:32.748Z,13.77
2023-02-16T21:21:01.283Z,15.25
2023-02-16T21:23:28.592Z,15.80
2023-02-16T21:26:04.729Z,16.05
2023-02-16T21:28:31.898Z,14.90
2023-02-16T21:31:05.314Z,14.35
2023-02-16T21:33:32.879Z,14.18
2023-02-16T21:36:24.074Z,13.98
2023-02-16T21:41:27.705Z,12.73
2023-02-16T21:44:10.099Z,13.75
2023-02-16T21:46:40.098Z,12.55
2023-02-16T21:49:09.015Z,10.65
2023-02-16T21:51:38.185Z,15.40
2023-02-16T21:54:11.791Z,14.63
2023-02-16T21:56:43.504Z,14.43
2023-02-16T21:59:13.588Z,11.10
2023-02-16T22:01:51.130Z,15.17
2023-02-16T22:04:21.691Z,13.90
2023-02-16T22:06:50.224Z,13.63
2023-02-16T22:09:19.691Z,11.25
2023-02-16T22:11:47.310Z,14.13
2023-02-16T22:14:14.736Z,14.13
2023-02-16T22:16:44.142Z,13.13
2023-02-16T22:19:14.015Z,12.65
2023-02-16T22:21:42.577Z,12.52
2023-02-16T22:24:12.863Z,12.75
2023-02-16T22:26:39.856Z,14.13
2023-02-16T22:29:08.288Z,13.60
2023-02-16T22:31:35.674Z,14.18
2023-02-16T22:34:05.674Z,13.15
2023-02-16T22:36:33.706Z,12.47
2023-02-16T22:39:00.604Z,11.20
2023-02-16T22:41:27.612Z,12.95
2023-02-16T22:43:56.108Z,12.75
2023-02-16T22:46:24.330Z,14.15
2023-02-16T22:48:52.432Z,14.00
2023-02-16T22:51:21.003Z,13.40
2023-02-16T22:53:48.440Z,12.77
2023-02-16T22:56:17.642Z,14.45
2023-02-16T22:58:44.687Z,13.45
2023-02-16T23:01:17.047Z,16.10
2023-02-16T23:03:59.055Z,11.85
2023-02-16T23:06:30.550Z,13.73
2023-02-16T23:09:03.760Z,14.68
2023-02-16T23:11:31.547Z,13.45
2023-02-16T23:13:58.613Z,13.25
2023-02-16T23:16:27.490Z,13.10
2023-02-16T23:18:59.118Z,11.30
2023-02-16T23:21:31.702Z,11.93
2023-02-16T23:23:59.583Z,12.40
2023-02-16T23:26:28.777Z,11.98
2023-02-16T23:28:58.311Z,14.50
2023-02-16T23:31:25.754Z,11.55
2023-02-16T23:33:55.306Z,12.77
2023-02-16T23:36:22.221Z,11.35
2023-02-16T23:38:52.275Z,13.93
2023-02-16T23:41:21.737Z,12.23
2023-02-16T23:43:48.573Z,10.10
2023-02-16T23:46:15.506Z,12.55
2023-02-16T23:48:42.476Z,13.48
2023-02-16T23:51:11.943Z,10.25
2023-02-16T23:53:39.008Z,10.48
2023-02-16T23:56:15.972Z,12.38
2023-02-16T23:58:45.110Z,10.82
